Time;durP1;ratioP1;P1;durP2;ratioP2;P2;SDS_P1;SDS_P2;PMS_P1;PMS_P2;Temp;Humidity;BMP_temperature;BMP_pressure;BME280_temperature;BME280_humidity;BME280_pressure;Samples;Min_cycle;Max_cycle;Signal;HPM_P1;HPM_P2
2021/11/26 00:02:24;;;;;;;21.67;11.48;;;;;;;4.42;61.61;96333.59;5037015;28;20059;-82
2021/11/26 00:04:50;;;;;;;19.73;11.20;;;;;;;4.51;61.90;96339.19;5017205;28;20196;-82
2021/11/26 00:07:18;;;;;;;20.42;10.18;;;;;;;4.46;61.51;96321.03;5017345;28;20089;-82
2021/11/26 00:09:44;;;;;;;24.15;11.63;;;;;;;4.24;61.76;96321.59;5030185;28;20127;-81
2021/11/26 00:12:09;;;;;;;23.25;11.82;;;;;;;3.96;63.18;96324.03;5033619;28;20119;-81
2021/11/26 00:14:41;;;;;;;26.23;12.70;;;;;;;4.07;63.88;96333.59;5033322;28;20066;-81
2021/11/26 00:17:14;;;;;;;23.67;11.50;;;;;;;4.13;63.33;96333.47;5035098;28;20564;-81
2021/11/26 00:19:40;;;;;;;23.52;11.65;;;;;;;4.17;62.72;96333.81;5034353;28;20063;-81
2021/11/26 00:22:05;;;;;;;24.30;11.00;;;;;;;4.10;62.70;96330.56;5033281;28;20476;-81
2021/11/26 00:24:30;;;;;;;22.45;10.80;;;;;;;4.05;63.02;96333.03;5029903;28;20469;-81
2021/11/26 00:26:56;;;;;;;20.63;10.68;;;;;;;4.02;62.77;96336.03;5020626;28;20345;-81
2021/11/26 00:29:21;;;;;;;22.25;11.05;;;;;;;3.90;63.01;96325.72;5033335;28;20025;-81
2021/11/26 00:31:47;;;;;;;24.15;13.15;;;;;;;3.87;63.23;96329.53;5034361;28;20502;-81
2021/11/26 00:34:13;;;;;;;26.35;12.80;;;;;;;3.78;63.58;96332.66;5043529;28;20059;-81
2021/11/26 00:36:39;;;;;;;26.63;13.27;;;;;;;3.75;63.67;96336.44;5066078;28;20020;-81
2021/11/26 00:39:05;;;;;;;29.80;13.90;;;;;;;3.71;64.08;96330.19;5035260;28;20032;-82
2021/11/26 00:41:31;;;;;;;27.58;14.88;;;;;;;3.74;63.88;96340.81;5009627;28;20029;-81
2021/11/26 00:43:57;;;;;;;28.55;13.45;;;;;;;3.77;64.19;96333.66;5028156;28;20025;-81
2021/11/26 00:46:22;;;;;;;28.40;13.02;;;;;;;3.78;64.02;96333.44;5041704;28;20385;-81
2021/11/26 00:48:48;;;;;;;29.45;13.38;;;;;;;3.82;64.71;96332.00;5020748;28;20428;-81
2021/11/26 00:51:13;;;;;;;25.38;12.98;;;;;;;3.89;64.69;96342.19;5016374;28;20313;-81
2021/11/26 00:53:39;;;;;;;26.55;12.60;;;;;;;3.91;64.15;96328.09;5033706;28;20034;-81
2021/11/26 00:56:05;;;;;;;26.63;12.02;;;;;;;3.94;64.28;96332.78;5015090;28;20395;-81
2021/11/26 00:58:30;;;;;;;28.33;13.68;;;;;;;3.96;63.85;96324.84;5033472;28;20036;-81
2021/11/26 01:00:56;;;;;;;26.58;13.48;;;;;;;3.99;63.94;96326.19;5033175;28;20264;-81
2021/11/26 01:03:22;;;;;;;26.40;12.60;;;;;;;4.03;63.72;96322.94;5050207;28;20036;-81
2021/11/26 01:05:49;;;;;;;28.05;13.15;;;;;;;4.07;63.54;96321.47;5033122;28;20230;-81
2021/11/26 01:08:15;;;;;;;27.83;13.77;;;;;;;4.09;63.68;96316.09;5033413;28;20035;-81
2021/11/26 01:10:40;;;;;;;28.33;13.27;;;;;;;4.09;64.74;96310.97;5023129;28;20025;-81
2021/11/26 01:13:06;;;;;;;27.23;12.55;;;;;;;4.06;63.91;96309.63;5029939;28;20431;-81
2021/11/26 01:15:32;;;;;;;25.80;13.05;;;;;;;4.08;64.37;96306.84;5013653;28;20051;-81
2021/11/26 01:17:58;;;;;;;26.88;13.50;;;;;;;4.11;64.42;96303.78;5041671;28;20032;-81
2021/11/26 01:20:26;;;;;;;23.50;12.85;;;;;;;4.11;64.11;96303.78;5032942;28;20033;-81
2021/11/26 01:22:52;;;;;;;24.75;11.82;;;;;;;4.14;64.64;96293.03;5029594;28;20033;-81
2021/11/26 01:25:19;;;;;;;22.15;11.85;;;;;;;4.19;64.17;96300.09;5020138;28;20028;-81
2021/11/26 01:27:44;;;;;;;24.92;11.30;;;;;;;4.20;63.69;96289.56;5016997;28;20037;-81
2021/11/26 01:30:30;;;;;;;26.00;12.85;;;;;;;4.10;63.58;96279.81;5069043;28;20491;-81
2021/11/26 01:32:59;;;;;;;22.38;11.63;;;;;;;4.18;64.16;96275.34;5055849;28;20487;-82
2021/11/26 01:35:25;;;;;;;22.48;11.70;;;;;;;4.29;63.51;96270.16;5036574;28;20059;-81
2021/11/26 01:37:51;;;;;;;27.50;12.43;;;;;;;4.29;63.47;96266.81;5035289;28;20033;-81
2021/11/26 01:40:18;;;;;;;23.10;12.48;;;;;;;4.28;63.21;96266.06;5019376;28;20029;-81
2021/11/26 01:42:44;;;;;;;25.15;12.75;;;;;;;4.28;63.79;96260.91;5017791;28;20025;-81
2021/11/26 01:45:10;;;;;;;22.83;11.40;;;;;;;4.31;63.32;96268.16;5016984;28;20032;-82
2021/11/26 01:47:35;;;;;;;24.73;12.57;;;;;;;4.26;63.30;96255.16;5033221;28;20028;-82
2021/11/26 01:50:03;;;;;;;27.65;13.07;;;;;;;4.20;63.29;96261.22;5032282;28;20025;-81
2021/11/26 01:52:28;;;;;;;25.63;13.35;;;;;;;4.24;62.98;96257.19;5049599;28;20455;-81
2021/11/26 01:54:54;;;;;;;27.33;13.60;;;;;;;4.21;63.67;96252.47;5049529;28;20060;-82
2021/11/26 01:57:19;;;;;;;22.17;11.50;;;;;;;4.21;63.71;96257.63;5050917;28;20031;-81
2021/11/26 01:59:50;;;;;;;25.02;13.13;;;;;;;4.07;64.02;96246.00;5048453;28;20025;-81
2021/11/26 02:02:16;;;;;;;27.20;11.98;;;;;;;4.19;63.36;96254.50;5016747;28;20035;-82
2021/11/26 02:04:41;;;;;;;24.33;11.13;;;;;;;4.20;63.59;96238.03;5029576;28;20040;-82
2021/11/26 02:07:07;;;;;;;24.00;12.45;;;;;;;4.18;63.58;96227.19;5029781;28;20020;-82
2021/11/26 02:09:32;;;;;;;24.65;12.27;;;;;;;4.22;63.47;96230.09;5017789;28;20029;-82
2021/11/26 02:11:58;;;;;;;25.02;12.23;;;;;;;4.27;63.44;96228.41;5059132;28;20024;-82
2021/11/26 02:14:23;;;;;;;24.42;11.90;;;;;;;4.30;63.29;96222.78;5016759;28;20163;-83
2021/11/26 02:16:49;;;;;;;25.17;12.00;;;;;;;4.27;63.07;96214.75;5033264;28;20107;-82
2021/11/26 02:19:15;;;;;;;25.02;11.75;;;;;;;4.29;62.91;96204.97;5048874;28;20020;-83
2021/11/26 02:21:42;;;;;;;24.70;12.30;;;;;;;4.27;63.10;96202.63;5033105;28;20033;-82
2021/11/26 02:24:08;;;;;;;26.35;13.02;;;;;;;4.27;62.51;96199.28;5049440;28;20032;-82
2021/11/26 02:26:38;;;;;;;24.63;12.30;;;;;;;4.19;63.22;96190.09;5032117;28;20025;-82
2021/11/26 02:29:04;;;;;;;27.40;13.85;;;;;;;4.30;62.41;96188.50;5015958;28;20161;-83
2021/11/26 02:31:29;;;;;;;24.55;12.45;;;;;;;4.31;62.97;96190.06;5015906;28;20033;-83
2021/11/26 02:33:55;;;;;;;25.90;13.27;;;;;;;4.27;62.69;96189.75;5029366;28;20021;-82
2021/11/26 02:36:20;;;;;;;28.33;12.60;;;;;;;4.26;63.29;96179.66;5031419;28;20696;-82
2021/11/26 02:38:46;;;;;;;26.90;13.07;;;;;;;4.27;62.98;96178.66;5066536;28;20051;-82
2021/11/26 02:41:11;;;;;;;29.67;14.23;;;;;;;4.26;63.36;96183.00;5016544;28;20028;-82
2021/11/26 02:43:36;;;;;;;25.55;12.98;;;;;;;4.31;63.25;96172.03;5028762;28;20051;-82
2021/11/26 02:46:02;;;;;;;28.17;14.82;;;;;;;4.32;62.96;96174.38;5029362;28;20031;-82
2021/11/26 02:48:27;;;;;;;31.42;13.13;;;;;;;4.32;62.81;96161.50;5032818;28;20673;-82
2021/11/26 02:50:53;;;;;;;26.30;13.90;;;;;;;4.28;63.13;96160.41;5026875;28;20686;-83
2021/11/26 02:53:18;;;;;;;25.77;12.40;;;;;;;4.27;62.87;96158.81;5029220;28;20124;-83
2021/11/26 02:55:44;;;;;;;25.88;13.90;;;;;;;4.35;63.02;96167.97;5012430;28;20033;-82
2021/11/26 02:58:10;;;;;;;26.85;13.18;;;;;;;4.21;63.24;96170.03;5031808;28;20040;-82
2021/11/26 03:00:39;;;;;;;30.23;14.40;;;;;;;4.16;62.38;96159.63;5031820;28;20036;-82
2021/11/26 03:03:05;;;;;;;26.05;13.65;;;;;;;4.24;62.91;96155.94;5049512;28;20045;-83
2021/11/26 03:05:31;;;;;;;28.77;14.15;;;;;;;4.10;63.13;96161.34;5032133;28;20103;-82
2021/11/26 03:07:56;;;;;;;31.23;15.52;;;;;;;4.08;63.76;96163.34;5032855;28;20037;-82
2021/11/26 03:10:23;;;;;;;29.48;14.43;;;;;;;4.05;63.54;96155.31;5035463;28;20082;-82
2021/11/26 03:12:51;;;;;;;26.73;13.10;;;;;;;4.07;63.81;96164.34;5035720;28;20090;-82
2021/11/26 03:15:18;;;;;;;26.38;13.73;;;;;;;4.07;63.63;96148.13;5035943;28;20512;-83
2021/11/26 03:17:44;;;;;;;28.13;13.07;;;;;;;4.11;63.55;96149.22;5035788;28;20020;-82
2021/11/26 03:20:10;;;;;;;28.60;13.68;;;;;;;4.10;63.83;96132.22;5048292;28;20061;-82
2021/11/26 03:22:35;;;;;;;28.73;12.50;;;;;;;4.06;63.85;96128.53;5052271;28;20089;-82
2021/11/26 03:25:02;;;;;;;26.73;13.27;;;;;;;4.05;63.44;96126.97;5045873;28;20414;-82
2021/11/26 03:27:28;;;;;;;26.30;13.05;;;;;;;4.03;63.76;96132.34;5052456;28;20032;-82
2021/11/26 03:29:53;;;;;;;27.17;13.70;;;;;;;4.06;63.91;96124.16;5031847;28;20140;-82
2021/11/26 03:32:19;;;;;;;29.48;14.68;;;;;;;3.99;63.34;96120.16;5008689;28;20519;-82
2021/11/26 03:34:44;;;;;;;29.70;13.73;;;;;;;4.01;64.35;96133.56;5068355;28;20032;-82
2021/11/26 03:37:10;;;;;;;29.48;14.65;;;;;;;4.02;64.35;96130.78;5046704;28;20443;-82
2021/11/26 03:39:35;;;;;;;29.73;14.50;;;;;;;4.07;64.42;96125.72;5051141;28;20036;-82
2021/11/26 03:42:01;;;;;;;28.15;13.38;;;;;;;4.08;64.21;96119.56;5031853;28;20074;-82
2021/11/26 03:44:26;;;;;;;27.63;13.18;;;;;;;4.13;63.95;96122.25;5032129;28;20393;-82
2021/11/26 03:46:51;;;;;;;27.98;13.98;;;;;;;4.14;63.99;96117.84;5032042;28;20435;-82
2021/11/26 03:49:17;;;;;;;28.80;14.10;;;;;;;4.13;63.75;96116.31;5000814;28;20036;-82
2021/11/26 03:51:42;;;;;;;25.90;13.30;;;;;;;4.18;63.62;96118.97;5035158;28;20036;-82
2021/11/26 03:54:08;;;;;;;32.08;14.25;;;;;;;4.17;63.38;96117.41;5035213;28;20180;-82
2021/11/26 03:56:34;;;;;;;31.23;15.07;;;;;;;4.22;63.98;96114.94;5030221;28;20032;-82
2021/11/26 03:58:59;;;;;;;33.83;15.27;;;;;;;4.24;63.56;96120.63;5002350;28;20421;-82
2021/11/26 04:01:24;;;;;;;26.75;14.07;;;;;;;4.26;63.79;96110.88;5035419;28;20068;-82
2021/11/26 04:03:50;;;;;;;32.05;14.68;;;;;;;4.24;63.48;96107.75;5051558;28;20524;-82
2021/11/26 04:06:15;;;;;;;30.70;13.98;;;;;;;4.29;63.47;96107.84;5051682;28;20043;-82
2021/11/26 04:08:41;;;;;;;30.33;15.07;;;;;;;4.29;63.87;96105.25;5050615;28;20021;-82
2021/11/26 04:11:06;;;;;;;29.63;15.35;;;;;;;4.30;63.31;96100.88;5042584;28;20028;-82
2021/11/26 04:13:31;;;;;;;29.48;15.40;;;;;;;4.39;62.98;96096.16;5018061;28;20028;-82
2021/11/26 04:16:02;;;;;;;28.75;13.98;;;;;;;4.42;63.54;96093.09;5051343;28;20159;-82
2021/11/26 04:18:29;;;;;;;30.20;14.57;;;;;;;4.45;63.18;96096.00;5068322;28;20027;-83
2021/11/26 04:20:54;;;;;;;31.52;14.68;;;;;;;4.47;63.18;96096.56;5051289;28;20054;-82
2021/11/26 04:23:19;;;;;;;29.13;14.80;;;;;;;4.44;62.48;96096.25;5051045;28;20028;-82
2021/11/26 04:25:45;;;;;;;33.00;16.30;;;;;;;4.35;63.25;96087.31;5039530;28;20017;-83
2021/11/26 04:28:10;;;;;;;33.08;15.55;;;;;;;4.38;63.17;96085.06;5034527;28;20016;-83
2021/11/26 04:30:36;;;;;;;30.15;15.25;;;;;;;4.35;63.58;96082.16;5050257;28;20369;-83
2021/11/26 04:33:02;;;;;;;33.15;15.20;;;;;;;4.45;62.78;96070.22;5037798;28;20036;-83
2021/11/26 04:35:27;;;;;;;31.95;15.35;;;;;;;4.54;62.42;96067.28;5017872;28;20024;-83
2021/11/26 04:37:53;;;;;;;31.10;14.88;;;;;;;4.49;62.10;96065.41;5034331;28;20067;-83
2021/11/26 04:40:19;;;;;;;31.55;15.93;;;;;;;4.54;62.85;96065.50;5018299;28;20032;-83
2021/11/26 04:42:45;;;;;;;35.95;17.15;;;;;;;4.48;62.56;96058.69;5049585;28;20027;-82
2021/11/26 04:45:12;;;;;;;32.85;16.35;;;;;;;4.52;62.31;96057.19;5050817;28;20381;-82
2021/11/26 04:47:38;;;;;;;34.50;16.95;;;;;;;4.44;62.97;96055.78;5012229;28;20100;-82
2021/11/26 04:50:06;;;;;;;31.42;16.30;;;;;;;4.45;62.72;96056.56;5029683;28;20479;-82
2021/11/26 04:52:31;;;;;;;31.45;15.57;;;;;;;4.44;63.11;96049.88;5014257;28;20033;-82
2021/11/26 04:54:57;;;;;;;34.58;16.27;;;;;;;4.45;63.12;96052.19;5017287;28;20025;-82
2021/11/26 04:57:22;;;;;;;32.33;15.70;;;;;;;4.46;63.38;96046.03;5033162;28;20130;-82
2021/11/26 04:59:48;;;;;;;32.25;16.48;;;;;;;4.50;63.10;96054.06;5049935;28;20043;-82
2021/11/26 05:02:13;;;;;;;32.80;15.85;;;;;;;4.47;63.14;96049.38;5033788;28;20032;-82
2021/11/26 05:04:39;;;;;;;35.88;15.80;;;;;;;4.46;62.92;96048.59;5050162;28;20029;-82
2021/11/26 05:07:04;;;;;;;34.45;16.48;;;;;;;4.46;62.78;96045.25;5050235;28;20476;-82
2021/11/26 05:09:30;;;;;;;31.90;15.52;;;;;;;4.40;63.06;96038.44;5013284;28;20067;-82
2021/11/26 05:11:55;;;;;;;31.42;15.50;;;;;;;4.38;63.37;96028.38;5035872;28;20503;-82
2021/11/26 05:14:24;;;;;;;41.47;17.38;;;;;;;4.37;63.50;96041.47;5068153;28;20541;-82
2021/11/26 05:16:51;;;;;;;34.75;16.77;;;;;;;4.45;62.91;96039.28;5050405;28;20178;-82
2021/11/26 05:19:16;;;;;;;36.90;16.48;;;;;;;4.44;63.26;96036.97;5049891;28;20111;-82
2021/11/26 05:21:42;;;;;;;37.28;18.15;;;;;;;4.44;63.48;96031.81;5039536;28;20158;-82
2021/11/26 05:24:07;;;;;;;35.53;16.92;;;;;;;4.49;62.54;96034.47;5050362;28;20063;-83
2021/11/26 05:26:33;;;;;;;32.20;16.25;;;;;;;4.46;62.57;96027.22;5030287;28;20040;-83
2021/11/26 05:28:58;;;;;;;33.53;17.38;;;;;;;4.42;62.99;96031.25;5013170;28;20029;-82
2021/11/26 05:31:24;;;;;;;34.25;16.35;;;;;;;4.37;62.80;96016.50;5027270;28;20609;-82
2021/11/26 05:33:49;;;;;;;34.30;17.55;;;;;;;4.44;63.60;96021.50;5050044;28;20594;-82
2021/11/26 05:36:15;;;;;;;37.80;17.08;;;;;;;4.46;62.98;96022.06;5033159;28;20064;-83
2021/11/26 05:38:41;;;;;;;36.15;18.38;;;;;;;4.53;62.80;96019.34;5049383;28;20376;-83
2021/11/26 05:41:07;;;;;;;33.38;16.77;;;;;;;4.60;62.97;96014.78;5013899;28;20032;-83
2021/11/26 05:43:32;;;;;;;36.92;17.65;;;;;;;4.53;62.38;96012.38;5029326;28;20032;-82
2021/11/26 05:45:58;;;;;;;38.75;19.20;;;;;;;4.43;62.93;96012.97;5037974;28;20403;-83
2021/11/26 05:48:23;;;;;;;35.13;16.15;;;;;;;4.44;63.11;95998.31;5036101;28;20343;-83
2021/11/26 05:50:49;;;;;;;31.90;15.95;;;;;;;4.48;63.39;95999.41;5036019;28;20024;-82
2021/11/26 05:53:14;;;;;;;33.60;17.75;;;;;;;4.44;62.94;96000.91;5013664;28;20045;-83
2021/11/26 05:55:40;;;;;;;33.50;17.98;;;;;;;4.54;62.94;95988.16;5013434;28;20024;-83
2021/11/26 05:58:05;;;;;;;37.97;17.40;;;;;;;4.46;62.36;95994.47;5016577;28;20194;-82
2021/11/26 06:00:32;;;;;;;33.08;17.38;;;;;;;4.44;63.05;95993.16;5048015;28;20042;-82
2021/11/26 06:02:58;;;;;;;38.88;18.05;;;;;;;4.50;62.89;95992.22;5065222;28;20028;-82
2021/11/26 06:05:24;;;;;;;40.20;17.95;;;;;;;4.47;63.14;95983.16;5048626;28;20032;-82
2021/11/26 06:07:50;;;;;;;33.30;16.75;;;;;;;4.44;62.33;95975.91;5062347;28;20020;-82
2021/11/26 06:10:16;;;;;;;39.15;19.02;;;;;;;4.46;63.17;95970.50;5047952;28;20395;-82
2021/11/26 06:12:43;;;;;;;37.08;17.88;;;;;;;4.42;63.15;95969.41;5048242;28;20038;-82
2021/11/26 06:15:10;;;;;;;36.92;17.80;;;;;;;4.45;62.42;95959.41;5031599;28;20186;-82
2021/11/26 06:17:37;;;;;;;35.50;17.98;;;;;;;4.52;62.87;95959.25;5031893;28;20040;-82
2021/11/26 06:20:03;;;;;;;37.22;18.40;;;;;;;4.48;62.52;95951.19;5014728;28;20029;-82
2021/11/26 06:22:29;;;;;;;34.85;16.92;;;;;;;4.49;63.04;95960.50;5043243;28;20128;-82
2021/11/26 06:24:54;;;;;;;39.28;18.25;;;;;;;4.53;62.56;95955.66;5038722;28;20469;-82
2021/11/26 06:27:19;;;;;;;39.42;19.40;;;;;;;4.50;62.18;95953.56;5051100;28;20036;-82
2021/11/26 06:29:45;;;;;;;37.17;18.35;;;;;;;4.40;63.09;95949.00;5014786;28;20040;-82
2021/11/26 06:32:10;;;;;;;39.83;18.05;;;;;;;4.52;62.85;95946.34;5032541;28;20396;-82
2021/11/26 06:34:36;;;;;;;37.20;18.17;;;;;;;4.48;63.08;95948.63;5016358;28;20108;-82
2021/11/26 06:37:01;;;;;;;36.90;17.25;;;;;;;4.52;62.77;95936.03;5028793;28;20017;-82
2021/11/26 06:39:26;;;;;;;34.95;18.25;;;;;;;4.47;62.59;95934.19;5028072;28;20029;-82
2021/11/26 06:41:52;;;;;;;36.67;19.65;;;;;;;4.53;62.56;95921.38;5047434;28;20028;-82
2021/11/26 06:44:17;;;;;;;39.30;18.70;;;;;;;4.55;62.96;95921.91;5037137;28;20025;-82
2021/11/26 06:46:43;;;;;;;39.08;18.13;;;;;;;4.56;62.92;95919.09;5033089;28;20051;-82
2021/11/26 06:49:08;;;;;;;36.72;19.20;;;;;;;4.50;63.19;95914.88;5011295;28;20072;-82
2021/11/26 06:51:34;;;;;;;37.95;18.15;;;;;;;4.54;63.30;95913.41;5038012;28;20028;-82
2021/11/26 06:53:59;;;;;;;39.42;18.30;;;;;;;4.64;62.61;95917.91;5052546;28;20180;-82
2021/11/26 06:56:25;;;;;;;36.47;17.40;;;;;;;4.61;62.75;95900.34;5047917;28;20036;-82
2021/11/26 06:58:53;;;;;;;39.25;18.17;;;;;;;4.66;62.56;95905.56;5053833;28;20033;-82
2021/11/26 07:01:19;;;;;;;39.65;19.40;;;;;;;4.68;62.21;95906.13;5073157;28;20119;-82
2021/11/26 07:03:44;;;;;;;36.28;18.27;;;;;;;4.59;63.06;95908.34;5051309;28;20548;-82
2021/11/26 07:06:09;;;;;;;41.25;18.85;;;;;;;4.65;62.59;95916.91;5030051;28;20549;-82
2021/11/26 07:08:35;;;;;;;37.70;18.45;;;;;;;4.48;63.30;95904.03;5018700;28;20032;-82
2021/11/26 07:11:00;;;;;;;39.33;17.35;;;;;;;4.52;63.48;95897.38;5035632;28;20048;-82
2021/11/26 07:13:26;;;;;;;39.30;17.83;;;;;;;4.47;63.20;95894.72;5052479;28;20427;-82
2021/11/26 07:15:51;;;;;;;40.20;17.77;;;;;;;4.55;62.75;95898.72;5052116;28;20472;-82
2021/11/26 07:18:17;;;;;;;39.63;18.15;;;;;;;4.60;62.28;95891.81;5028033;28;20080;-82
2021/11/26 07:20:42;;;;;;;39.40;19.15;;;;;;;4.56;63.13;95883.03;5012914;28;20060;-82
2021/11/26 07:23:08;;;;;;;40.70;18.63;;;;;;;4.56;62.92;95885.59;5019285;28;20029;-82
2021/11/26 07:25:34;;;;;;;40.00;19.98;;;;;;;4.64;62.93;95874.88;5023542;28;20028;-82
2021/11/26 07:27:59;;;;;;;40.50;19.27;;;;;;;4.66;62.63;95874.63;5040712;28;20396;-83
2021/11/26 07:30:24;;;;;;;42.75;18.92;;;;;;;4.67;62.87;95884.69;5037787;28;20032;-82
2021/11/26 07:32:50;;;;;;;38.03;17.92;;;;;;;4.61;62.88;95877.13;5034687;28;20111;-82
2021/11/26 07:35:16;;;;;;;40.03;18.73;;;;;;;4.59;62.97;95874.03;5034669;28;20128;-82
2021/11/26 07:37:42;;;;;;;41.75;17.02;;;;;;;4.64;63.19;95877.47;5043873;28;20020;-82
2021/11/26 07:40:11;;;;;;;41.30;19.55;;;;;;;4.61;62.88;95870.19;5027795;28;20124;-82
2021/11/26 07:42:38;;;;;;;41.30;20.27;;;;;;;4.60;63.18;95865.28;5031159;28;20032;-82
2021/11/26 07:45:04;;;;;;;37.40;19.23;;;;;;;4.60;63.44;95860.91;5042592;28;20033;-82
2021/11/26 07:47:29;;;;;;;43.90;21.40;;;;;;;4.63;63.40;95860.44;5014153;28;20033;-82
2021/11/26 07:49:55;;;;;;;39.88;18.98;;;;;;;4.63;63.32;95857.84;5022371;28;20036;-82
2021/11/26 07:52:20;;;;;;;39.05;18.30;;;;;;;4.63;63.36;95855.28;5033815;28;20020;-82
2021/11/26 07:54:46;;;;;;;39.13;19.63;;;;;;;4.66;63.48;95854.78;5028290;28;20308;-82
2021/11/26 07:57:12;;;;;;;43.95;20.13;;;;;;;4.74;63.64;95855.41;5063364;28;20479;-81
2021/11/26 07:59:38;;;;;;;40.15;18.98;;;;;;;4.71;63.99;95848.91;4999316;28;20036;-82
2021/11/26 08:02:04;;;;;;;39.65;18.88;;;;;;;4.79;63.00;95848.50;5019176;28;20033;-82
2021/11/26 08:04:30;;;;;;;41.55;19.50;;;;;;;4.78;63.17;95839.22;5051038;28;20208;-82
2021/11/26 08:06:56;;;;;;;41.65;19.15;;;;;;;4.88;63.54;95849.66;5065572;28;20036;-81
2021/11/26 08:09:21;;;;;;;45.05;20.08;;;;;;;4.83;63.33;95833.31;5043879;28;20068;-82
2021/11/26 08:11:47;;;;;;;42.95;18.60;;;;;;;4.90;63.35;95836.53;5059062;28;20111;-82
2021/11/26 08:14:14;;;;;;;41.35;19.55;;;;;;;4.95;62.68;95844.31;5039311;28;20078;-80
2021/11/26 08:16:40;;;;;;;37.47;19.45;;;;;;;5.02;62.91;95834.59;5024191;28;20070;-82
2021/11/26 08:19:06;;;;;;;38.15;19.63;;;;;;;4.99;62.91;95829.13;5040879;28;20488;-82
2021/11/26 08:21:33;;;;;;;42.80;20.23;;;;;;;5.10;62.15;95830.00;5029465;28;20393;-82
2021/11/26 08:23:59;;;;;;;41.88;18.80;;;;;;;5.12;62.65;95833.13;5030350;28;20113;-82
2021/11/26 08:26:24;;;;;;;41.30;19.75;;;;;;;5.10;62.71;95817.13;5061081;28;20066;-81
2021/11/26 08:28:50;;;;;;;39.53;19.17;;;;;;;5.15;62.28;95825.69;5033280;28;20060;-82
2021/11/26 08:31:17;;;;;;;43.75;18.88;;;;;;;5.14;63.01;95820.75;5049553;28;20429;-81
2021/11/26 08:33:42;;;;;;;42.05;20.15;;;;;;;5.16;62.63;95821.31;5050121;28;20091;-81
2021/11/26 08:36:07;;;;;;;41.08;19.63;;;;;;;5.19;62.68;95818.22;5033046;28;20523;-82
2021/11/26 08:38:33;;;;;;;39.85;19.45;;;;;;;5.21;62.33;95816.22;5038386;28;20068;-81
2021/11/26 08:40:58;;;;;;;39.40;20.00;;;;;;;5.24;62.58;95807.94;5069116;28;20086;-82
2021/11/26 08:43:23;;;;;;;37.85;18.45;;;;;;;5.10;62.83;95804.22;5029787;28;20064;-81
2021/11/26 08:45:49;;;;;;;44.45;19.13;;;;;;;5.11;63.39;95803.19;5030187;28;20032;-81
2021/11/26 08:48:14;;;;;;;47.58;20.50;;;;;;;5.22;62.54;95803.03;5042122;28;20190;-81
2021/11/26 08:50:40;;;;;;;44.15;20.70;;;;;;;5.27;62.25;95804.91;5016011;28;20494;-81
2021/11/26 08:53:07;;;;;;;45.70;19.75;;;;;;;5.25;62.47;95804.34;5024720;28;20047;-81
2021/11/26 08:55:34;;;;;;;43.97;20.05;;;;;;;5.35;62.67;95801.88;5013681;28;20032;-81
2021/11/26 08:58:00;;;;;;;40.88;19.05;;;;;;;5.32;62.47;95797.19;5046465;28;20465;-81
2021/11/26 09:00:28;;;;;;;45.08;20.10;;;;;;;5.33;62.82;95797.97;5014070;28;20128;-82
2021/11/26 09:02:54;;;;;;;46.40;21.48;;;;;;;5.41;62.14;95798.31;5030278;28;20040;-82
2021/11/26 09:05:20;;;;;;;44.38;21.88;;;;;;;5.42;63.14;95786.19;5048469;28;20037;-81
2021/11/26 09:07:47;;;;;;;46.03;20.23;;;;;;;5.33;62.89;95777.31;5032938;28;20103;-81
2021/11/26 09:10:14;;;;;;;45.97;22.17;;;;;;;5.42;62.52;95784.38;5049698;28;20028;-81
2021/11/26 09:12:39;;;;;;;47.20;21.33;;;;;;;5.41;62.60;95771.72;5033166;28;20086;-82
2021/11/26 09:15:06;;;;;;;46.83;20.63;;;;;;;5.23;63.04;95778.03;5032785;28;20032;-81
2021/11/26 09:17:32;;;;;;;46.55;21.05;;;;;;;5.29;62.96;95774.44;5032871;28;20510;-81
2021/11/26 09:19:58;;;;;;;47.53;21.27;;;;;;;5.34;62.49;95777.06;5032600;28;20024;-82
2021/11/26 09:22:23;;;;;;;50.33;22.48;;;;;;;5.25;63.82;95769.00;5032911;28;20078;-81
2021/11/26 09:24:49;;;;;;;53.38;22.08;;;;;;;5.28;63.38;95770.34;5032119;28;20043;-81
2021/11/26 09:27:14;;;;;;;51.78;21.98;;;;;;;5.25;63.75;95766.44;5032353;28;20484;-81
2021/11/26 09:29:44;;;;;;;45.58;21.73;;;;;;;5.21;63.25;95760.22;5032827;28;20515;-81
2021/11/26 09:32:10;;;;;;;45.47;19.38;;;;;;;5.26;63.35;95756.91;5050115;28;20436;-81
2021/11/26 09:34:35;;;;;;;52.00;22.05;;;;;;;5.32;63.48;95760.28;5049447;28;20111;-81
2021/11/26 09:37:01;;;;;;;49.58;20.95;;;;;;;5.27;63.74;95758.44;5029609;28;20059;-82
2021/11/26 09:39:26;;;;;;;47.33;21.17;;;;;;;5.31;63.87;95746.59;5047507;28;20127;-81
2021/11/26 09:41:53;;;;;;;49.55;20.77;;;;;;;5.43;63.77;95754.97;5049554;28;20028;-81
2021/11/26 09:44:18;;;;;;;46.97;20.20;;;;;;;5.46;63.59;95750.34;5031990;28;20028;-82
2021/11/26 09:46:46;;;;;;;46.53;20.77;;;;;;;5.43;63.81;95742.06;5056649;28;20043;-82
2021/11/26 09:49:11;;;;;;;51.38;21.83;;;;;;;5.22;63.86;95730.78;5052187;28;20050;-82
2021/11/26 09:51:37;;;;;;;52.65;20.52;;;;;;;5.18;64.23;95724.56;5069103;28;20036;-81
2021/11/26 09:54:03;;;;;;;48.75;20.55;;;;;;;5.23;64.51;95723.84;5035747;28;20383;-81
2021/11/26 09:56:31;;;;;;;53.20;21.42;;;;;;;5.26;64.21;95713.03;5060934;28;20035;-81
2021/11/26 09:58:59;;;;;;;56.75;22.67;;;;;;;5.40;63.62;95708.22;5067457;28;20027;-81
2021/11/26 10:01:25;;;;;;;53.38;20.73;;;;;;;5.46;64.14;95701.28;5052292;28;20089;-82
2021/11/26 10:03:52;;;;;;;50.20;21.55;;;;;;;5.42;63.78;95704.38;5043599;28;20151;-82
2021/11/26 10:06:37;;;;;;;55.65;24.00;;;;;;;5.24;63.52;95695.22;5032299;28;20673;-82
2021/11/26 10:09:05;;;;;;;52.50;21.45;;;;;;;5.43;64.28;95690.44;5015224;28;20380;-82
2021/11/26 10:11:37;;;;;;;51.67;21.73;;;;;;;5.60;63.93;95684.34;5048814;28;20139;-82
2021/11/26 10:14:27;;;;;;;47.88;18.88;;;;;;;5.43;64.38;95684.50;5032559;28;20048;-82
2021/11/26 10:17:16;;;;;;;55.67;21.17;;;;;;;5.51;63.58;95683.25;5054547;28;20024;-82
2021/11/26 10:19:46;;;;;;;48.03;20.08;;;;;;;5.57;64.63;95682.25;5068335;28;20422;-82
2021/11/26 10:22:24;;;;;;;52.47;20.85;;;;;;;5.25;65.19;95678.69;5069616;28;20063;-81
2021/11/26 10:25:17;;;;;;;49.47;20.35;;;;;;;5.28;64.93;95676.63;5052311;28;20369;-81
2021/11/26 10:27:49;;;;;;;50.25;20.92;;;;;;;5.54;64.24;95675.03;5052673;28;20044;-82
2021/11/26 10:30:28;;;;;;;53.85;22.90;;;;;;;5.61;64.33;95671.19;5036160;28;20029;-82
2021/11/26 10:33:07;;;;;;;52.17;22.40;;;;;;;5.52;64.19;95664.16;5052877;28;20044;-81
2021/11/26 10:35:39;;;;;;;49.95;20.42;;;;;;;5.63;63.37;95652.88;5035710;28;20036;-82
2021/11/26 10:38:18;;;;;;;52.30;20.48;;;;;;;5.69;64.15;95651.88;5065300;28;20027;-82
2021/11/26 10:40:48;;;;;;;50.17;19.55;;;;;;;5.74;64.40;95651.09;5072673;28;20043;-82
2021/11/26 10:43:20;;;;;;;50.63;20.98;;;;;;;5.74;63.94;95644.16;5072094;28;20086;-82
2021/11/26 10:46:14;;;;;;;53.40;20.83;;;;;;;5.75;63.90;95650.09;5072167;28;20027;-81
2021/11/26 10:59:29;;;;;;;45.65;19.73;;;;;;;5.72;64.32;95617.78;5074269;28;20038;-82
2021/11/26 11:01:55;;;;;;;50.10;19.90;;;;;;;5.72;63.86;95604.88;5055378;28;20039;-82
2021/11/26 11:04:23;;;;;;;46.88;21.08;;;;;;;5.63;65.10;95596.06;5047604;28;20043;-81
2021/11/26 11:07:02;;;;;;;49.38;18.45;;;;;;;5.64;63.95;95589.88;5038593;28;20032;-82
2021/11/26 11:09:42;;;;;;;51.38;20.45;;;;;;;5.59;65.15;95577.72;5071682;28;20078;-82
2021/11/26 11:12:09;;;;;;;48.63;19.65;;;;;;;5.82;64.54;95584.25;5038176;28;20028;-82
2021/11/26 11:14:34;;;;;;;44.35;20.73;;;;;;;5.89;64.43;95578.09;5055002;28;20036;-82
2021/11/26 11:17:00;;;;;;;47.30;18.58;;;;;;;5.68;64.97;95578.00;5071588;28;20032;-81
2021/11/26 11:19:26;;;;;;;46.30;19.85;;;;;;;5.82;64.04;95573.91;5038858;28;20032;-82
2021/11/26 11:21:54;;;;;;;54.13;19.48;;;;;;;5.70;64.32;95563.03;5071675;28;20040;-82
2021/11/26 11:24:20;;;;;;;53.10;20.63;;;;;;;5.81;64.41;95561.28;5071862;28;20185;-82
2021/11/26 11:26:47;;;;;;;47.85;19.65;;;;;;;5.92;64.14;95556.91;5060426;28;20029;-82
2021/11/26 11:29:21;;;;;;;44.20;18.33;;;;;;;5.79;64.32;95555.56;5049944;28;20491;-82
2021/11/26 11:31:47;;;;;;;40.50;17.02;;;;;;;5.78;65.04;95556.63;5068256;28;20040;-82
2021/11/26 11:34:15;;;;;;;42.05;16.77;;;;;;;5.86;63.93;95547.59;5051192;28;20082;-81